Overton, Nevada Weather observations

Data are for observation ending at time listed.
 Day   Time    Ave.   Ave.  Ave.  Vector   Max.   Stn.    Total    Solar   Ave.  
  of    of     Air    Rel.  Wind   Wind    Wind   Baro.  Precip.   Rad.    Soil  
Year   Day     Temp.  Hum.  Speed  Dir.    Gust   Pres.                    Temp. 
2014   (PST)    F      %     mph   deg.    mph     mb.     in.     W/m2     F   
------------------------------------------------------------------------------
 204   10:30  104.6     8    2.8   140      5.5   970.4    0.00     811    117.1
 204   10:40  104.9     8    2.2   143      6.3   970.4    0.00     822    118.0
 204   10:50  106.8     7    2.8   112      6.3   970.3    0.00     834    117.9
 204   11:00  107.0     7    2.4   151      5.3   970.3    0.00     846    116.1
 204   11:10  107.3     7    2.7   152      8.7   970.2    0.00     846    114.5
 204   11:20  107.4     7    3.5   144      8.1   970.1    0.00     851    113.7
 204   11:30  108.2     7    3.8   106      8.5   969.9    0.00     856    113.3
 204   11:40  108.9     7    3.6   107     10.7   969.7    0.00     861    113.0
 204   11:50  108.5     7    5.5    82     10.1   969.6    0.00     862    113.2
 204   12:00  109.9     6    4.4   118      9.3   969.4    0.00     862    113.2
 204   12:10  110.2     6    4.8   114     12.6   969.2    0.00     861    113.3
 204   12:20  110.6     6    4.5   114      9.2   969.1    0.00     858    113.6
 204   12:30  111.2     6    5.9   151     16.5   968.9    0.00     862    113.9
 204   12:40  111.5     6    4.3   157     11.8   968.8    0.00     858    114.3
 204   12:50  111.2     6    5.8   165     10.7   968.7    0.00     860    114.5
 204   13:00  111.0     6    5.9   147     13.2   968.6    0.00     835    114.5
 204   13:10  111.7     6    4.8    97     11.8   968.4    0.00     819    114.4
 204   13:20  111.7     6    6.7   155     14.4   968.3    0.00     810    114.3
 204   13:30  111.8     6    3.4   129      7.9   968.2    0.00     813    114.2
 204   13:40  112.5     6    4.8   133     12.0   968.1    0.00     800    113.8
 204   13:50  113.4     6    6.2   148     12.3   968.0    0.00     775    113.0
 204   14:00  112.2     6    3.1   146      8.8   967.9    0.00     759    112.2
 204   14:10  112.7     6    6.3   164     12.4   967.8    0.00     748    111.3
 204   14:20  112.9     6    4.1   152     10.4   967.6    0.00     731    110.7
 204   14:30  113.6     6    2.9   221      9.2   967.5    0.00     726    110.1
 204   14:40  114.5     6    2.3   341      5.1   967.3    0.00     702    109.6
 204   14:50  115.4     6    3.1   134     10.4   967.2    0.00     671    109.2
 204   15:00  112.4     7    8.5   168     14.4   967.1    0.00     288    109.0
 204   15:10  112.4     7    5.9   168     13.9   966.9    0.00     609    108.8
 204   15:20  112.7     6    2.3   135     10.0   966.7    0.00     352    108.6
 204   15:30  112.1     7    5.8   135     12.8   966.5    0.00     324    108.5
 204   15:40  112.5     7    5.2   135     11.0   966.3    0.00     516    108.3
 204   15:50  113.1     7    4.3   134      8.3   966.1    0.00     506    108.1
 204   16:00  113.6     7    4.8   108     10.0   966.1    0.00     484    107.9
 204   16:10  113.0     7    3.6    77      6.7   966.0    0.00     448    107.6
 204   16:20  113.2     7    4.0   133      9.9   965.9    0.00     405    107.4
 204   16:30  113.6     6    3.4   239      7.4   965.8    0.00     345    107.3
 204   16:40  113.8     6    4.3   228      9.2   965.7    0.00     351    107.2
 204   16:50  113.8     6    2.1   202      5.3   965.4    0.00     322    107.1
 204   17:00  113.7     6    3.2   186      7.9   965.4    0.00     292    106.9
 204   17:10  113.1     6    3.6   188      5.9   965.4    0.00     234    106.8
 204   17:20  112.4     7    6.0   201     11.1   965.3    0.00     200    106.7
 204   17:30  112.1     7    6.0   191      9.6   965.1    0.00     213    106.8
 204   17:40  112.5     7    4.0   216      7.8   965.0    0.00     197    106.7
 204   17:50  112.3     7    3.8   187      8.3   964.9    0.00     174    106.4
 204   18:00  112.0     7    3.7   178      5.7   964.9    0.00     154    106.4
 204   18:10  111.7     7    4.4   193      7.9   964.9    0.00     124    106.3
 204   18:20  110.6     8    2.1   158      5.5   964.8    0.00      54    106.3
 204   18:30  109.0    10    2.4   101      4.9   964.7    0.00      36    106.3
 204   18:40  108.2    10    1.9   122      5.3   964.5    0.00      23    106.1
 204   18:50  107.2    10    1.6   121      3.7   964.3    0.00      14    105.7
 204   19:00  105.5    12    1.4   121      3.0   964.2    0.00       7    105.4
 204   19:10  104.2    12    1.2   120      2.8   964.0    0.00       2    105.0
 204   19:20  103.2    12    1.4   130      3.1   963.9    0.00       0    104.6
 204   19:30  102.2    12    1.2   124      3.6   963.9    0.00       0    104.2
 204   19:40  101.2    13    1.5   107      3.0   963.7    0.00       0    103.7
 204   19:50  101.4    11    2.0   150      6.0   963.7    0.00       0    103.3
 204   20:00  105.2     8    4.5   164      9.2   963.7    0.00       0    102.9
 204   20:10  106.1     8    4.8   181      8.4   963.9    0.00       0    102.6
 204   20:20  105.5     8    3.5   173      6.1   964.0    0.00       0    102.3
 204   20:30  105.2     8    3.9   176      7.0   964.1    0.00       0    102.0
 204   20:40  105.7     8    5.0   169      7.5   964.1    0.00       0    101.8
 204   20:50  105.6     8    4.3   171      8.0   964.2    0.00       0    101.6
 204   21:00  105.5     8    5.1   174      7.8   964.3    0.00       0    101.5
 204   21:10  105.2     8    4.8   174      8.0   964.4    0.00       0    101.4
 204   21:20  104.5     8    3.2   177      5.2   964.4    0.00       0    101.2
 204   21:30   98.7    13    1.9    11      3.5   964.4    0.00       0    101.0
 204   21:40   94.3    15    1.7    48      3.4   964.2    0.00       0    100.8
 204   21:50   94.6    14    1.6    66      2.6   964.1    0.00       0    100.5
 204   22:00   94.2    15    0.7     7      1.5   964.1    0.00       0    100.2
 204   22:10   93.9    14    1.2    92      2.5   964.0    0.00       0    99.9
 204   22:20   95.7    13    1.0    89      2.0   964.1    0.00       0    99.6
 204   22:30   96.2    13    0.7   111      3.1   964.1    0.00       0    99.3
 204   22:40   95.9    14    1.2   125      4.2   964.1    0.00       0    99.1
 204   22:50   96.2    14    1.4   107      4.5   964.1    0.00       0    98.8
 204   23:00   95.4    14    1.3   111      4.0   964.1    0.00       0    98.5
 204   23:10   94.6    14    1.1   108      3.7   964.1    0.00       0    98.3
 204   23:20   93.6    16    0.2   106      1.8   964.1    0.00       0    98.0
 204   23:30   92.5    16    0.0   117      0.2   964.0    0.00       0    97.8
 204   23:40   91.7    17    0.7   123      2.1   963.9    0.00       0    97.5
 204   23:50   90.2    18    1.2    79      2.7   963.9    0.00       0    97.1
 205    0:00   86.0    22    0.9   348      1.7   963.9    0.00       0    96.8
 205    0:10   83.8    25    1.3   324      2.3   963.7    0.00       0    96.4
 205    0:20   82.8    25    0.7   307      1.2   963.5    0.00       0    95.9
 205    0:30   82.8    25    0.5   286      2.3   963.3    0.00       0    95.6
 205    0:40   83.6    24    0.4   234      1.8   963.2    0.00       0    95.2
 205    0:50   81.5    27    0.7   325      1.9   963.2    0.00       0    94.8
 205    1:00   79.6    29    2.6   325      4.3   963.2    0.00       0    94.4
 205    1:10   79.1    30    1.3   318      3.0   963.1    0.00       0    94.1
 205    1:20   79.7    28    0.8   287      2.0   963.0    0.00       0    93.8
 205    1:30   79.2    29    1.7   297      2.8   963.0    0.00       0    93.5
 205    1:40   78.7    29    1.4   296      2.6   963.0    0.00       0    93.1
 205    1:50   80.6    25    2.3   265      5.4   962.9    0.00       0    92.8
 205    2:00   83.1    21    1.4   255      3.5   962.9    0.00       0    92.6
 205    2:10   81.2    24    1.3   354      2.9   963.1    0.00       0    92.3
 205    2:20   78.9    29    2.2   348      3.2   963.2    0.00       0    92.1
 205    2:30   78.5    28    1.7   321      3.9   963.2    0.00       0    91.9
 205    2:40   79.7    25    1.9   316      4.0   963.1    0.00       0    91.7
 205    2:50   79.6    24    1.9   315      3.8   963.2    0.00       0    91.4
 205    3:00   80.0    24    1.9   311      3.7   963.2    0.00       0    91.1
 205    3:10   79.6    23    1.8   320      3.7   963.2    0.00       0    90.9
 205    3:20   79.8    23    2.7   300      4.5   963.3    0.00       0    90.7
 205    3:30   80.2    22    1.7   291      5.0   963.3    0.00       0    90.4
 205    3:40   80.9    21    2.6   288      4.2   963.3    0.00       0    90.2
 205    3:50   80.2    21    2.9   293      5.0   963.4    0.00       0    89.9
 205    4:00   80.5    20    3.5   297      5.8   963.5    0.00       0    89.7
 205    4:10   79.7    21    0.9   315      1.8   963.7    0.00       0    89.5
 205    4:20   78.7    22    1.5   304      4.7   963.8    0.00       0    89.3
 205    4:30   79.1    21    1.7   286      5.3   963.8    0.00       0    89.1
 205    4:40   78.6    22    1.6   274      3.5   963.8    0.00       2    88.9
 205    4:50   77.0    24    2.5   305      4.1   963.9    0.00       4    88.7
 205    5:00   76.2    23    1.8   294      4.2   963.9    0.00       8    88.5
 205    5:10   76.3    23    2.2   298      4.1   963.9    0.00      31    88.3
 205    5:20   77.8    21    2.7   285      5.3   964.0    0.00      51    88.4
 205    5:30   80.7    19    2.0   285      4.1   964.3    0.00      87    88.7
 205    5:40   82.2    18    1.3   289      4.0   964.4    0.00     118    89.3
 205    5:50   83.2    17    1.9   279      3.6   964.7    0.00     145    90.1
 205    6:00   84.1    16    2.9   291      5.5   965.1    0.00     172    91.0
 205    6:10   85.0    16    2.5   284      3.9   965.3    0.00     199    91.8
 205    6:20   86.0    17    2.7   291      4.7   965.6    0.00     218    92.8
 205    6:30   87.4    16    1.9   284      3.8   965.8    0.00     255    93.9
 205    6:40   88.8    14    4.0   305      6.5   965.9    0.00     284    94.9
 205    6:50   89.7    12    4.1   313      6.3   966.1    0.00     313    96.0
 205    7:00   90.8    13    2.9   336      4.5   966.3    0.00     341    96.9
 205    7:10   91.5    14    3.0   338      4.6   966.5    0.00     369    98.0
 205    7:20   92.3    14    2.6   340      3.9   966.6    0.00     397    99.2
 205    7:30   93.4    14    2.7   332      3.9   966.8    0.00     425    100.3
 205    7:40   96.1    13    1.1    38      2.8   967.0    0.00     453    101.6
 205    7:50   97.6    13    1.8    23      3.4   967.0    0.00     481    102.9
 205    8:00   98.0    13    1.1    95      2.9   967.2    0.00     507    104.2
 205    8:10   99.2    12    0.9    68      3.7   967.2    0.00     533    105.5
 205    8:20   99.2    12    1.5   319      4.5   967.3    0.00     558    106.8
 205    8:30   99.2    12    2.6   336      4.7   967.3    0.00     582    108.0
 205    8:40   99.8    12    3.8   325      5.9   967.3    0.00     605    109.2
 205    8:50  101.5    12    3.3   324      6.1   967.3    0.00     627    110.3
 205    9:00  102.8    12    2.5   345      4.5   967.3    0.00     301    111.4
 205    9:10  104.0    12    3.7   348      6.5   967.4    0.00     172    112.5
 205    9:20  104.5    11    2.3   310      5.8   967.5    0.00      50    113.6
 205    9:30  105.9    12    7.0   163     12.0   967.4    0.00     468    114.7
 205    9:40  106.7    12    8.3   182     17.2   967.4    0.00     704    115.6
 205    9:50  107.0    13    7.2   168     16.6   967.3    0.00     530    116.3
 205   10:00  107.1    13    9.7   176     17.2   967.2    0.00     462    117.1
 205   10:10  107.4    13    8.5   158     16.4   967.1    0.00     755    117.6
 205   10:20  107.5    13    8.1   151     15.3   967.1    0.00     374    118.3

Return to Overton, Nevada graphs page.


Western Regional Climate Center,wrcc@dri.edu